Corystes — GHRU — position and weather

sailwx.info

Track history (hours):
 
Tides and Currents Weather Stations Pressure Air Temp Water Temp Dewpoint Dewpoint Depression Visibility Wind Speed Wind Dir Waves Ship Positions

Oceanographic research ship Corystes (UK)

Detailed information on ship capabilities available from University of Delaware's Ocean Information Center.

Last reported at 2019-Sep-21 05:24 UTC. Time now 2019-Sep-21 05:37 UTC.
Position N 54°37' W 005°55'.

Length 53 m; draft 5.2 m.

Type: Cargo ship. MMSI: 233558000.

Date/timePositionNaut miles runAvg speedWind from/ knotsBaromVisibWave heightAir tempDewpointWater temp
2019-Sep-21 05:24N 54°37' W 005°55'0 0.0
2019-Sep-21 05:00N 54°37' W 005°55'0 0.0
2019-Sep-21 04:27N 54°37' W 005°55'0 0.0
2019-Sep-21 03:57N 54°37' W 005°55'0 0.0
2019-Sep-21 03:30N 54°37' W 005°55'0 0.0
2019-Sep-21 02:57N 54°37' W 005°55'0 0.0
2019-Sep-21 02:30N 54°37' W 005°55'0 0.0
2019-Sep-21 02:00N 54°37' W 005°55'0 0.0
2019-Sep-21 01:30N 54°37' W 005°55'0 0.0
2019-Sep-21 01:00N 54°37' W 005°55'0 0.0
2019-Sep-21 00:30N 54°37' W 005°55'0 0.0
2019-Sep-21 00:00N 54°37' W 005°55'0 0.0
2019-Sep-20 23:30N 54°37' W 005°55'0 0.0
2019-Sep-20 23:00N 54°37' W 005°55'0 0.0
2019-Sep-20 22:30N 54°37' W 005°55'0 0.0
2019-Sep-20 22:00N 54°37' W 005°55'0 0.0
2019-Sep-20 21:30N 54°37' W 005°55'0 0.0
2019-Sep-20 21:00N 54°37' W 005°55'0 0.0
2019-Sep-20 20:30N 54°37' W 005°55'0 0.0
2019-Sep-20 20:00N 54°37' W 005°55'0 0.0
2019-Sep-20 19:30N 54°37' W 005°55'0 0.0
2019-Sep-20 19:00N 54°37' W 005°55'0 0.0
2019-Sep-20 18:30N 54°37' W 005°55'0 0.0
2019-Sep-20 18:00N 54°37' W 005°55'0 0.0
2019-Sep-20 17:30N 54°37' W 005°55'0 0.0
2019-Sep-20 16:57N 54°37' W 005°55'0 0.0
2019-Sep-20 16:30N 54°37' W 005°55'0 0.0
2019-Sep-20 16:00N 54°37' W 005°55'0 0.0
2019-Sep-20 15:30N 54°37' W 005°55'0 0.0
2019-Sep-20 15:00N 54°37' W 005°55'0 0.0
2019-Sep-20 14:30N 54°37' W 005°55'0 0.1
2019-Sep-20 14:00N 54°37' W 005°55'2 4.1
2019-Sep-20 13:30N 54°38' W 005°52'4 9.0
2019-Sep-20 13:00N 54°41' W 005°47'5 9.9
2019-Sep-20 12:30N 54°45' W 005°41'510.7
2019-Sep-20 12:00N 54°50' W 005°41'1210.3
2019-Sep-20 10:53N 54°60' W 005°51'4 1.4
2019-Sep-20 08:00N 54°57' W 005°46'1 1.8
2019-Sep-20 07:30N 54°57' W 005°47'1 2.7
2019-Sep-20 06:58N 54°58' W 005°49'3 6.5
2019-Sep-20 06:30N 55°01' W 005°52'3 6.5
2019-Sep-20 06:00N 55°03' W 005°55'2 4.7
2019-Sep-20 05:30N 55°01' W 005°53'3 7.0
2019-Sep-20 05:00N 54°59' W 005°49'3 2.8
2019-Sep-20 03:53N 55°01' W 005°52'3 6.8
2019-Sep-20 03:30N 55°03' W 005°55'2 4.6
2019-Sep-20 03:00N 55°02' W 005°53'4 7.2
2019-Sep-20 02:30N 54°59' W 005°49'1 1.7
2019-Sep-20 02:00N 54°58' W 005°48'3 6.7
2019-Sep-20 01:30N 55°01' W 005°51'3 6.9
2019-Sep-20 01:00N 55°04' W 005°55'2 4.8
2019-Sep-20 00:29N 55°02' W 005°52'3 6.7
2019-Sep-20 00:00N 54°59' W 005°49'1 2.1
2019-Sep-19 23:25N 54°58' W 005°47'3 7.0
2019-Sep-19 22:59N 55°01' W 005°50'3 6.9
2019-Sep-19 22:29N 55°03' W 005°54'1 2.6
2019-Sep-19 22:00N 55°02' W 005°52'3 6.9
2019-Sep-19 21:30N 54°60' W 005°49'1 1.9
2019-Sep-19 20:50N 54°59' W 005°47'2 7.1
2019-Sep-19 20:30N 55°01' W 005°50'5 6.9
2019-Sep-19 19:51N 55°04' W 005°54'2 6.6
2019-Sep-19 19:30N 55°03' W 005°52'3 6.9
2019-Sep-19 19:00N 54°60' W 005°48'3 4.9
2019-Sep-19 18:28N 54°58' W 005°46'3 7.1
2019-Sep-19 18:00N 55°00' W 005°49'3 6.1
2019-Sep-19 17:30N 54°58' W 005°46'3 5.1
2019-Sep-19 17:00N 55°00' W 005°48'2 3.9
2019-Sep-19 16:30N 54°59' W 005°46'1 2.6
2019-Sep-19 16:00N 54°60' W 005°47'1 1.7
2019-Sep-19 15:30N 54°59' W 005°46'0 0.8
2019-Sep-19 15:00N 54°60' W 005°46'1 3.0
2019-Sep-19 14:30N 55°01' W 005°47'3 5.7
2019-Sep-19 14:00N 54°59' W 005°44'1 1.4
2019-Sep-19 13:30N 54°59' W 005°45'2 4.3
2019-Sep-19 13:00N 55°01' W 005°45'2 3.8
2019-Sep-19 12:30N 55°00' W 005°42'1 1.2
2019-Sep-19 12:00N 55°01' W 005°43'0 0.8
2019-Sep-19 11:31N 55°00' W 005°44'0 0.6
2019-Sep-19 10:55N 55°00' W 005°44'2 4.1
2019-Sep-19 10:29N 54°59' W 005°42'2 4.2
2019-Sep-19 09:58N 54°58' W 005°40'0 0.3
2019-Sep-19 09:30N 54°57' W 005°40'1 2.0
2019-Sep-19 09:00N 54°57' W 005°38'4 7.2
2019-Sep-19 08:30N 55°00' W 005°41'2 4.3
2019-Sep-19 08:00N 55°02' W 005°44'4 7.0
2019-Sep-19 07:26N 54°59' W 005°40'3 6.2
2019-Sep-19 07:00N 54°56' W 005°37'4 7.2
2019-Sep-19 06:30N 54°59' W 005°41'3 6.9
2019-Sep-19 06:00N 55°02' W 005°44'3 6.5
2019-Sep-19 05:30N 54°59' W 005°41'4 7.6
2019-Sep-19 05:00N 54°56' W 005°38'3 6.4
2019-Sep-19 04:30N 54°59' W 005°41'3 6.6
2019-Sep-19 04:00N 55°02' W 005°44'2 3.9
2019-Sep-19 03:30N 54°60' W 005°43'4 7.0
2019-Sep-19 03:00N 54°57' W 005°39'2 2.8
2019-Sep-19 02:27N 54°58' W 005°41'3 6.8
2019-Sep-19 01:59N 55°01' W 005°44'1 2.0
2019-Sep-19 01:30N 54°60' W 005°43'4 7.1
2019-Sep-19 00:58N 54°57' W 005°39'1 1.9
2019-Sep-19 00:30N 54°57' W 005°41'4 7.0
2019-Sep-18 23:56N 55°01' W 005°45'1 2.5
2019-Sep-18 23:25N 54°59' W 005°43'2 1.2
2019-Sep-18 21:47N 55°01' W 005°46'1 2.6
2019-Sep-18 21:29N 55°00' W 005°45'10 2.8
2019-Sep-18 17:57N 54°51' W 005°39'4 9.6
2019-Sep-18 17:30N 54°47' W 005°39'0 0.6
2019-Sep-18 17:00N 54°46' W 005°39'1 1.3
2019-Sep-18 16:30N 54°47' W 005°39'0 0.6
2019-Sep-18 16:00N 54°47' W 005°39'1 2.4
2019-Sep-18 15:30N 54°46' W 005°38'510.7
2019-Sep-18 14:59N 54°43' W 005°31'4 8.6
2019-Sep-18 14:30N 54°39' W 005°28'1 1.3
2019-Sep-18 14:00N 54°40' W 005°28'0 0.5
2019-Sep-18 13:30N 54°40' W 005°27'0 0.7
2019-Sep-18 13:00N 54°40' W 005°28'0 0.9
2019-Sep-18 12:30N 54°40' W 005°28'0 0.7
2019-Sep-18 12:00N 54°40' W 005°28'1 1.3
2019-Sep-18 11:30N 54°40' W 005°27'0 0.7
2019-Sep-18 11:00N 54°40' W 005°28'0 0.8
2019-Sep-18 10:30N 54°40' W 005°28'2 3.3
2019-Sep-18 10:00N 54°41' W 005°29'5 9.3
2019-Sep-18 09:30N 54°42' W 005°36'510.2
2019-Sep-18 09:00N 54°41' W 005°45'5 9.4
2019-Sep-18 08:30N 54°39' W 005°52'3 5.6
2019-Sep-18 08:00N 54°37' W 005°55'0 0.1
2019-Sep-18 07:28N 54°37' W 005°55'0 0.0
2019-Sep-18 06:58N 54°37' W 005°55'0 0.0
2019-Sep-18 06:28N 54°37' W 005°55'0 0.0
2019-Sep-18 05:55N 54°37' W 005°55'0 0.0
2019-Sep-18 05:28N 54°37' W 005°55'0 0.0
2019-Sep-18 04:58N 54°37' W 005°55'0 0.0
2019-Sep-18 04:22N 54°37' W 005°55'0 0.0
2019-Sep-18 03:58N 54°37' W 005°55'0 0.0
2019-Sep-18 03:28N 54°37' W 005°55'0 0.0
2019-Sep-18 02:55N 54°37' W 005°55'0 0.0
2019-Sep-18 02:25N 54°37' W 005°55'0 0.0
2019-Sep-18 01:58N 54°37' W 005°55'0 0.0
2019-Sep-18 01:28N 54°37' W 005°55'0 0.0
2019-Sep-18 00:58N 54°37' W 005°55'0 0.0
2019-Sep-18 00:28N 54°37' W 005°55'0 0.0
2019-Sep-17 23:58N 54°37' W 005°55'0 0.0
2019-Sep-17 23:28N 54°37' W 005°55'0 0.0
2019-Sep-17 22:58N 54°37' W 005°55'0 0.0
2019-Sep-17 22:28N 54°37' W 005°55'0 0.0
2019-Sep-17 21:58N 54°37' W 005°55'0 0.0
2019-Sep-17 21:28N 54°37' W 005°55'0 0.0
2019-Sep-17 20:58N 54°37' W 005°55'0 0.0
2019-Sep-17 20:28N 54°37' W 005°55'0 0.0
2019-Sep-17 19:55N 54°37' W 005°55'0 0.0
2019-Sep-17 19:28N 54°37' W 005°55'0 0.0
2019-Sep-17 18:58N 54°37' W 005°55'0 0.0
2019-Sep-17 18:28N 54°37' W 005°55'0 0.0
2019-Sep-17 18:01N 54°37' W 005°55'0 0.0
2019-Sep-17 17:28N 54°37' W 005°55'0 0.0
2019-Sep-17 16:54N 54°37' W 005°55'0 0.0
2019-Sep-17 16:28N 54°37' W 005°55'0 0.0
2019-Sep-17 16:00N 54°37' W 005°55'0 0.0
2019-Sep-17 15:30N 54°37' W 005°55'0 0.0
2019-Sep-17 14:57N 54°37' W 005°55'0 0.0
2019-Sep-17 14:31N 54°37' W 005°55'1 1.5
2019-Sep-17 14:01N 54°37' W 005°54'4 6.5
2019-Sep-17 13:27N 54°40' W 005°50'410.0
2019-Sep-17 13:00N 54°42' W 005°44'5 9.5
2019-Sep-17 12:29N 54°47' W 005°40'6 0.7
2019-Sep-17 04:17N 54°51' W 005°32'311.2
2019-Sep-17 04:00N 54°48' W 005°31'611.4
2019-Sep-17 03:30N 54°43' W 005°27'611.6
2019-Sep-17 03:00N 54°37' W 005°25'611.3
2019-Sep-17 02:30N 54°31' W 005°23'510.6
2019-Sep-17 02:00N 54°26' W 005°21'610.1
2019-Sep-17 01:25N 54°20' W 005°23'4 9.8
2019-Sep-17 00:58N 54°16' W 005°25'7 9.5
2019-Sep-17 00:12N 54°10' W 005°32'2 9.5
2019-Sep-17 00:00N 54°08' W 005°33'7 9.5
2019-Sep-16 23:18N 54°03' W 005°40'7 9.2
2019-Sep-16 22:32N 53°59' W 005°50'12 0.7
2019-Sep-16 05:46N 54°04' W 005°30'310.4
2019-Sep-16 05:31N 54°06' W 005°29'510.4
2019-Sep-16 05:00N 54°11' W 005°27'510.1
2019-Sep-16 04:30N 54°16' W 005°24'5 9.8
2019-Sep-16 04:01N 54°21' W 005°22'5 9.1
2019-Sep-16 03:25N 54°26' W 005°22'4 8.7
2019-Sep-16 03:01N 54°30' W 005°23'2 3.3
2019-Sep-16 02:30N 54°31' W 005°24'1 1.0
2019-Sep-16 02:01N 54°32' W 005°23'4 7.4
2019-Sep-16 01:30N 54°35' W 005°25'4 7.6
2019-Sep-16 01:00N 54°39' W 005°28'0 0.5
2019-Sep-16 00:30N 54°39' W 005°28'0 0.7
2019-Sep-16 00:00N 54°39' W 005°27'0 0.3
2019-Sep-15 23:31N 54°39' W 005°27'4 8.7
2019-Sep-15 23:00N 54°43' W 005°31'510.2
2019-Sep-15 22:29N 54°42' W 005°40'5 9.7
2019-Sep-15 22:00N 54°41' W 005°48'4 8.6
2019-Sep-15 21:30N 54°38' W 005°53'2 3.1
2019-Sep-15 20:56N 54°37' W 005°55'0 0.0
2019-Sep-15 20:29N 54°37' W 005°55'0 0.0
2019-Sep-15 19:59N 54°37' W 005°55'0 0.0
2019-Sep-15 19:26N 54°37' W 005°55'0 0.0
2019-Sep-15 18:59N 54°37' W 005°55'0 0.0
2019-Sep-15 18:29N 54°37' W 005°55'0 0.0
2019-Sep-15 17:59N 54°37' W 005°55'0 0.0
2019-Sep-15 17:29N 54°37' W 005°55'0 0.0
2019-Sep-15 16:56N 54°37' W 005°55'0 0.0
2019-Sep-15 16:29N 54°37' W 005°55'0 0.0
2019-Sep-15 15:59N 54°37' W 005°55'0 0.0
2019-Sep-15 15:29N 54°37' W 005°55'0 0.0
2019-Sep-15 14:59N 54°37' W 005°55'0 0.0
2019-Sep-15 14:29N 54°37' W 005°55'0 0.0
2019-Sep-15 13:50N 54°37' W 005°55'0 0.0
2019-Sep-15 13:11N 54°37' W 005°55'0 0.0
2019-Sep-15 12:56N 54°37' W 005°55'0 0.0
2019-Sep-15 12:29N 54°37' W 005°55'0 0.0
2019-Sep-15 11:59N 54°37' W 005°55'0 0.0
2019-Sep-15 11:29N 54°37' W 005°55'0 0.0
2019-Sep-15 10:59N 54°37' W 005°55'0 0.0
2019-Sep-15 10:29N 54°37' W 005°55'0 0.0
2019-Sep-15 09:59N 54°37' W 005°55'0 0.0
2019-Sep-15 09:29N 54°37' W 005°55'0 0.0
2019-Sep-15 08:59N 54°37' W 005°55'0 0.0
2019-Sep-15 08:29N 54°37' W 005°55'0 0.0
2019-Sep-15 07:59N 54°37' W 005°55'0 0.0
2019-Sep-15 07:29N 54°37' W 005°55'0 0.0
2019-Sep-15 06:59N 54°37' W 005°55'0 0.0
2019-Sep-15 06:29N 54°37' W 005°55'0 0.0
2019-Sep-15 05:56N 54°37' W 005°55'0 0.0
2019-Sep-15 05:29N 54°37' W 005°55'0 0.0
2019-Sep-15 04:59N 54°37' W 005°55'0 0.0
2019-Sep-15 04:29N 54°37' W 005°55'0 0.0
2019-Sep-15 03:37N 54°37' W 005°55'0 0.0
2019-Sep-15 02:58N 54°37' W 005°55'0 0.0
2019-Sep-15 02:05N 54°37' W 005°55'0 0.0
2019-Sep-15 01:14N 54°37' W 005°55'0 0.0
2019-Sep-15 00:55N 54°37' W 005°55'0 0.0
2019-Sep-14 23:58N 54°37' W 005°55'0 0.0
2019-Sep-14 23:22N 54°37' W 005°55'0 0.0
2019-Sep-14 22:55N 54°37' W 005°55'0 0.0
2019-Sep-14 22:22N 54°37' W 005°55'0 0.0
2019-Sep-14 21:58N 54°37' W 005°55'0 0.0
2019-Sep-14 21:04N 54°37' W 005°55'0 0.0
2019-Sep-14 19:28N 54°37' W 005°55'0 0.0
2019-Sep-14 18:55N 54°37' W 005°55'0 0.0
2019-Sep-14 18:07N 54°37' W 005°55'0 0.0
2019-Sep-14 17:43N 54°37' W 005°55'0 0.0
2019-Sep-14 17:22N 54°37' W 005°55'0 0.0
2019-Sep-14 16:46N 54°37' W 005°55'0 0.0
2019-Sep-14 16:19N 54°37' W 005°55'0 0.0
2019-Sep-14 15:58N 54°37' W 005°55'0 0.0
2019-Sep-14 15:28N 54°37' W 005°55'0 0.0
2019-Sep-14 14:58N 54°37' W 005°55'0 0.0
2019-Sep-14 14:28N 54°37' W 005°55'0 0.0
2019-Sep-14 13:58N 54°37' W 005°55'0 0.0
2019-Sep-14 13:28N 54°37' W 005°55'0 0.0
2019-Sep-14 12:58N 54°37' W 005°55'0 0.0
2019-Sep-14 12:28N 54°37' W 005°55'0 0.0
2019-Sep-14 11:58N 54°37' W 005°55'0 0.0
2019-Sep-14 11:28N 54°37' W 005°55'0 0.0
2019-Sep-14 10:52N 54°37' W 005°55'0 0.0
2019-Sep-14 10:19N 54°37' W 005°55'0 0.0
2019-Sep-14 09:37N 54°37' W 005°55'0 0.0
2019-Sep-14 08:58N 54°37' W 005°55'0 0.0
2019-Sep-14 08:25N 54°37' W 005°55'0 0.0
2019-Sep-14 07:55N 54°37' W 005°55'0 0.0
2019-Sep-14 07:19N 54°37' W 005°55'0 0.0
2019-Sep-14 06:58N 54°37' W 005°55'1 1.7
2019-Sep-14 06:29N 54°37' W 005°54'3 6.8
2019-Sep-14 05:58N 54°40' W 005°50'5 9.9
2019-Sep-14 05:30N 54°42' W 005°43'4 8.5
2019-Sep-14 05:00N 54°46' W 005°39'2 3.8
2019-Sep-14 04:29N 54°47' W 005°37'2 3.7
2019-Sep-14 04:00N 54°49' W 005°37'2 3.1
2019-Sep-14 03:30N 54°51' W 005°37'2 3.3
2019-Sep-14 03:00N 54°49' W 005°37'2 4.1
2019-Sep-14 02:30N 54°47' W 005°37'1 2.1
2019-Sep-14 02:00N 54°48' W 005°37'1 2.3
2019-Sep-14 01:30N 54°49' W 005°37'1 2.4
2019-Sep-14 00:59N 54°50' W 005°37'8 6.5
2019-Sep-13 23:44N 54°56' W 005°27'11 5.8
2019-Sep-13 21:48N 54°51' W 005°10'3 8.8
2019-Sep-13 21:30N 54°50' W 005°07'2 3.8
2019-Sep-13 21:00N 54°48' W 005°06'1 2.1
2019-Sep-13 20:24N 54°46' W 005°06'1 3.1
2019-Sep-13 19:58N 54°47' W 005°03'3 6.7
2019-Sep-13 19:30N 54°44' W 005°01'3 6.4
2019-Sep-13 18:58N 54°41' W 005°00'  
Track history (hours):
 
Tides and Currents Weather Stations Pressure Air Temp Water Temp Dewpoint Dewpoint Depression Visibility Wind Speed Wind Dir Waves Ship Positions

Oceanographic research ship Corystes (UK)

Detailed information on ship capabilities available from University of Delaware's Ocean Information Center.

Last reported at 2019-Sep-21 05:24 UTC. Time now 2019-Sep-21 05:37 UTC.
Position N 54°37' W 005°55'.

Length 53 m; draft 5.2 m.

Type: Cargo ship. MMSI: 233558000.

Date/timePositionNaut miles runAvg speedWind from/ knotsBaromVisibWave heightAir tempDewpointWater temp
2019-Sep-21 05:24N 54°37' W 005°55'0 0.0
2019-Sep-21 05:00N 54°37' W 005°55'0 0.0
2019-Sep-21 04:27N 54°37' W 005°55'0 0.0
2019-Sep-21 03:57N 54°37' W 005°55'0 0.0
2019-Sep-21 03:30N 54°37' W 005°55'0 0.0
2019-Sep-21 02:57N 54°37' W 005°55'0 0.0
2019-Sep-21 02:30N 54°37' W 005°55'0 0.0
2019-Sep-21 02:00N 54°37' W 005°55'0 0.0
2019-Sep-21 01:30N 54°37' W 005°55'0 0.0
2019-Sep-21 01:00N 54°37' W 005°55'0 0.0
2019-Sep-21 00:30N 54°37' W 005°55'0 0.0
2019-Sep-21 00:00N 54°37' W 005°55'0 0.0
2019-Sep-20 23:30N 54°37' W 005°55'0 0.0
2019-Sep-20 23:00N 54°37' W 005°55'0 0.0
2019-Sep-20 22:30N 54°37' W 005°55'0 0.0
2019-Sep-20 22:00N 54°37' W 005°55'0 0.0
2019-Sep-20 21:30N 54°37' W 005°55'0 0.0
2019-Sep-20 21:00N 54°37' W 005°55'0 0.0
2019-Sep-20 20:30N 54°37' W 005°55'0 0.0
2019-Sep-20 20:00N 54°37' W 005°55'0 0.0
2019-Sep-20 19:30N 54°37' W 005°55'0 0.0
2019-Sep-20 19:00N 54°37' W 005°55'0 0.0
2019-Sep-20 18:30N 54°37' W 005°55'0 0.0
2019-Sep-20 18:00N 54°37' W 005°55'0 0.0
2019-Sep-20 17:30N 54°37' W 005°55'0 0.0
2019-Sep-20 16:57N 54°37' W 005°55'0 0.0
2019-Sep-20 16:30N 54°37' W 005°55'0 0.0
2019-Sep-20 16:00N 54°37' W 005°55'0 0.0
2019-Sep-20 15:30N 54°37' W 005°55'0 0.0
2019-Sep-20 15:00N 54°37' W 005°55'0 0.0
2019-Sep-20 14:30N 54°37' W 005°55'0 0.1
2019-Sep-20 14:00N 54°37' W 005°55'2 4.1
2019-Sep-20 13:30N 54°38' W 005°52'4 9.0
2019-Sep-20 13:00N 54°41' W 005°47'5 9.9
2019-Sep-20 12:30N 54°45' W 005°41'510.7
2019-Sep-20 12:00N 54°50' W 005°41'1210.3
2019-Sep-20 10:53N 54°60' W 005°51'4 1.4
2019-Sep-20 08:00N 54°57' W 005°46'1 1.8
2019-Sep-20 07:30N 54°57' W 005°47'1 2.7
2019-Sep-20 06:58N 54°58' W 005°49'3 6.5
2019-Sep-20 06:30N 55°01' W 005°52'3 6.5
2019-Sep-20 06:00N 55°03' W 005°55'2 4.7
2019-Sep-20 05:30N 55°01' W 005°53'3 7.0
2019-Sep-20 05:00N 54°59' W 005°49'3 2.8
2019-Sep-20 03:53N 55°01' W 005°52'3 6.8
2019-Sep-20 03:30N 55°03' W 005°55'2 4.6
2019-Sep-20 03:00N 55°02' W 005°53'4 7.2
2019-Sep-20 02:30N 54°59' W 005°49'1 1.7
2019-Sep-20 02:00N 54°58' W 005°48'3 6.7
2019-Sep-20 01:30N 55°01' W 005°51'3 6.9
2019-Sep-20 01:00N 55°04' W 005°55'2 4.8
2019-Sep-20 00:29N 55°02' W 005°52'3 6.7
2019-Sep-20 00:00N 54°59' W 005°49'1 2.1
2019-Sep-19 23:25N 54°58' W 005°47'3 7.0
2019-Sep-19 22:59N 55°01' W 005°50'3 6.9
2019-Sep-19 22:29N 55°03' W 005°54'1 2.6
2019-Sep-19 22:00N 55°02' W 005°52'3 6.9
2019-Sep-19 21:30N 54°60' W 005°49'1 1.9
2019-Sep-19 20:50N 54°59' W 005°47'2 7.1
2019-Sep-19 20:30N 55°01' W 005°50'5 6.9
2019-Sep-19 19:51N 55°04' W 005°54'2 6.6
2019-Sep-19 19:30N 55°03' W 005°52'3 6.9
2019-Sep-19 19:00N 54°60' W 005°48'3 4.9
2019-Sep-19 18:28N 54°58' W 005°46'3 7.1
2019-Sep-19 18:00N 55°00' W 005°49'3 6.1
2019-Sep-19 17:30N 54°58' W 005°46'3 5.1
2019-Sep-19 17:00N 55°00' W 005°48'2 3.9
2019-Sep-19 16:30N 54°59' W 005°46'1 2.6
2019-Sep-19 16:00N 54°60' W 005°47'1 1.7
2019-Sep-19 15:30N 54°59' W 005°46'0 0.8
2019-Sep-19 15:00N 54°60' W 005°46'1 3.0
2019-Sep-19 14:30N 55°01' W 005°47'3 5.7
2019-Sep-19 14:00N 54°59' W 005°44'1 1.4
2019-Sep-19 13:30N 54°59' W 005°45'2 4.3
2019-Sep-19 13:00N 55°01' W 005°45'2 3.8
2019-Sep-19 12:30N 55°00' W 005°42'1 1.2
2019-Sep-19 12:00N 55°01' W 005°43'0 0.8
2019-Sep-19 11:31N 55°00' W 005°44'0 0.6
2019-Sep-19 10:55N 55°00' W 005°44'2 4.1
2019-Sep-19 10:29N 54°59' W 005°42'2 4.2
2019-Sep-19 09:58N 54°58' W 005°40'0 0.3
2019-Sep-19 09:30N 54°57' W 005°40'1 2.0
2019-Sep-19 09:00N 54°57' W 005°38'4 7.2
2019-Sep-19 08:30N 55°00' W 005°41'2 4.3
2019-Sep-19 08:00N 55°02' W 005°44'4 7.0
2019-Sep-19 07:26N 54°59' W 005°40'3 6.2
2019-Sep-19 07:00N 54°56' W 005°37'4 7.2
2019-Sep-19 06:30N 54°59' W 005°41'3 6.9
2019-Sep-19 06:00N 55°02' W 005°44'3 6.5
2019-Sep-19 05:30N 54°59' W 005°41'4 7.6
2019-Sep-19 05:00N 54°56' W 005°38'3 6.4
2019-Sep-19 04:30N 54°59' W 005°41'3 6.6
2019-Sep-19 04:00N 55°02' W 005°44'2 3.9
2019-Sep-19 03:30N 54°60' W 005°43'4 7.0
2019-Sep-19 03:00N 54°57' W 005°39'2 2.8
2019-Sep-19 02:27N 54°58' W 005°41'3 6.8
2019-Sep-19 01:59N 55°01' W 005°44'1 2.0
2019-Sep-19 01:30N 54°60' W 005°43'4 7.1
2019-Sep-19 00:58N 54°57' W 005°39'1 1.9
2019-Sep-19 00:30N 54°57' W 005°41'4 7.0
2019-Sep-18 23:56N 55°01' W 005°45'1 2.5
2019-Sep-18 23:25N 54°59' W 005°43'2 1.2
2019-Sep-18 21:47N 55°01' W 005°46'1 2.6
2019-Sep-18 21:29N 55°00' W 005°45'10 2.8
2019-Sep-18 17:57N 54°51' W 005°39'4 9.6
2019-Sep-18 17:30N 54°47' W 005°39'0 0.6
2019-Sep-18 17:00N 54°46' W 005°39'1 1.3
2019-Sep-18 16:30N 54°47' W 005°39'0 0.6
2019-Sep-18 16:00N 54°47' W 005°39'1 2.4
2019-Sep-18 15:30N 54°46' W 005°38'510.7
2019-Sep-18 14:59N 54°43' W 005°31'4 8.6
2019-Sep-18 14:30N 54°39' W 005°28'1 1.3
2019-Sep-18 14:00N 54°40' W 005°28'0 0.5
2019-Sep-18 13:30N 54°40' W 005°27'0 0.7
2019-Sep-18 13:00N 54°40' W 005°28'0 0.9
2019-Sep-18 12:30N 54°40' W 005°28'0 0.7
2019-Sep-18 12:00N 54°40' W 005°28'1 1.3
2019-Sep-18 11:30N 54°40' W 005°27'0 0.7
2019-Sep-18 11:00N 54°40' W 005°28'0 0.8
2019-Sep-18 10:30N 54°40' W 005°28'2 3.3
2019-Sep-18 10:00N 54°41' W 005°29'5 9.3
2019-Sep-18 09:30N 54°42' W 005°36'510.2
2019-Sep-18 09:00N 54°41' W 005°45'5 9.4
2019-Sep-18 08:30N 54°39' W 005°52'3 5.6
2019-Sep-18 08:00N 54°37' W 005°55'0 0.1
2019-Sep-18 07:28N 54°37' W 005°55'0 0.0
2019-Sep-18 06:58N 54°37' W 005°55'0 0.0
2019-Sep-18 06:28N 54°37' W 005°55'0 0.0
2019-Sep-18 05:55N 54°37' W 005°55'0 0.0
2019-Sep-18 05:28N 54°37' W 005°55'0 0.0
2019-Sep-18 04:58N 54°37' W 005°55'0 0.0
2019-Sep-18 04:22N 54°37' W 005°55'0 0.0
2019-Sep-18 03:58N 54°37' W 005°55'0 0.0
2019-Sep-18 03:28N 54°37' W 005°55'0 0.0
2019-Sep-18 02:55N 54°37' W 005°55'0 0.0
2019-Sep-18 02:25N 54°37' W 005°55'0 0.0
2019-Sep-18 01:58N 54°37' W 005°55'0 0.0
2019-Sep-18 01:28N 54°37' W 005°55'0 0.0
2019-Sep-18 00:58N 54°37' W 005°55'0 0.0
2019-Sep-18 00:28N 54°37' W 005°55'0 0.0
2019-Sep-17 23:58N 54°37' W 005°55'0 0.0
2019-Sep-17 23:28N 54°37' W 005°55'0 0.0
2019-Sep-17 22:58N 54°37' W 005°55'0 0.0
2019-Sep-17 22:28N 54°37' W 005°55'0 0.0
2019-Sep-17 21:58N 54°37' W 005°55'0 0.0
2019-Sep-17 21:28N 54°37' W 005°55'0 0.0
2019-Sep-17 20:58N 54°37' W 005°55'0 0.0
2019-Sep-17 20:28N 54°37' W 005°55'0 0.0
2019-Sep-17 19:55N 54°37' W 005°55'0 0.0
2019-Sep-17 19:28N 54°37' W 005°55'0 0.0
2019-Sep-17 18:58N 54°37' W 005°55'0 0.0
2019-Sep-17 18:28N 54°37' W 005°55'0 0.0
2019-Sep-17 18:01N 54°37' W 005°55'0 0.0
2019-Sep-17 17:28N 54°37' W 005°55'0 0.0
2019-Sep-17 16:54N 54°37' W 005°55'0 0.0
2019-Sep-17 16:28N 54°37' W 005°55'0 0.0
2019-Sep-17 16:00N 54°37' W 005°55'0 0.0
2019-Sep-17 15:30N 54°37' W 005°55'0 0.0
2019-Sep-17 14:57N 54°37' W 005°55'0 0.0
2019-Sep-17 14:31N 54°37' W 005°55'1 1.5
2019-Sep-17 14:01N 54°37' W 005°54'4 6.5
2019-Sep-17 13:27N 54°40' W 005°50'410.0
2019-Sep-17 13:00N 54°42' W 005°44'5 9.5
2019-Sep-17 12:29N 54°47' W 005°40'6 0.7
2019-Sep-17 04:17N 54°51' W 005°32'311.2
2019-Sep-17 04:00N 54°48' W 005°31'611.4
2019-Sep-17 03:30N 54°43' W 005°27'611.6
2019-Sep-17 03:00N 54°37' W 005°25'611.3
2019-Sep-17 02:30N 54°31' W 005°23'510.6
2019-Sep-17 02:00N 54°26' W 005°21'610.1
2019-Sep-17 01:25N 54°20' W 005°23'4 9.8
2019-Sep-17 00:58N 54°16' W 005°25'7 9.5
2019-Sep-17 00:12N 54°10' W 005°32'2 9.5
2019-Sep-17 00:00N 54°08' W 005°33'7 9.5
2019-Sep-16 23:18N 54°03' W 005°40'7 9.2
2019-Sep-16 22:32N 53°59' W 005°50'12 0.7
2019-Sep-16 05:46N 54°04' W 005°30'310.4
2019-Sep-16 05:31N 54°06' W 005°29'510.4
2019-Sep-16 05:00N 54°11' W 005°27'510.1
2019-Sep-16 04:30N 54°16' W 005°24'5 9.8
2019-Sep-16 04:01N 54°21' W 005°22'5 9.1
2019-Sep-16 03:25N 54°26' W 005°22'4 8.7
2019-Sep-16 03:01N 54°30' W 005°23'2 3.3
2019-Sep-16 02:30N 54°31' W 005°24'1 1.0
2019-Sep-16 02:01N 54°32' W 005°23'4 7.4
2019-Sep-16 01:30N 54°35' W 005°25'4 7.6
2019-Sep-16 01:00N 54°39' W 005°28'0 0.5
2019-Sep-16 00:30N 54°39' W 005°28'0 0.7
2019-Sep-16 00:00N 54°39' W 005°27'0 0.3
2019-Sep-15 23:31N 54°39' W 005°27'4 8.7
2019-Sep-15 23:00N 54°43' W 005°31'510.2
2019-Sep-15 22:29N 54°42' W 005°40'5 9.7
2019-Sep-15 22:00N 54°41' W 005°48'4 8.6
2019-Sep-15 21:30N 54°38' W 005°53'2 3.1
2019-Sep-15 20:56N 54°37' W 005°55'0 0.0
2019-Sep-15 20:29N 54°37' W 005°55'0 0.0
2019-Sep-15 19:59N 54°37' W 005°55'0 0.0
2019-Sep-15 19:26N 54°37' W 005°55'0 0.0
2019-Sep-15 18:59N 54°37' W 005°55'0 0.0
2019-Sep-15 18:29N 54°37' W 005°55'0 0.0
2019-Sep-15 17:59N 54°37' W 005°55'0 0.0
2019-Sep-15 17:29N 54°37' W 005°55'0 0.0
2019-Sep-15 16:56N 54°37' W 005°55'0 0.0
2019-Sep-15 16:29N 54°37' W 005°55'0 0.0
2019-Sep-15 15:59N 54°37' W 005°55'0 0.0
2019-Sep-15 15:29N 54°37' W 005°55'0 0.0
2019-Sep-15 14:59N 54°37' W 005°55'0 0.0
2019-Sep-15 14:29N 54°37' W 005°55'0 0.0
2019-Sep-15 13:50N 54°37' W 005°55'0 0.0
2019-Sep-15 13:11N 54°37' W 005°55'0 0.0
2019-Sep-15 12:56N 54°37' W 005°55'0 0.0
2019-Sep-15 12:29N 54°37' W 005°55'0 0.0
2019-Sep-15 11:59N 54°37' W 005°55'0 0.0
2019-Sep-15 11:29N 54°37' W 005°55'0 0.0
2019-Sep-15 10:59N 54°37' W 005°55'0 0.0
2019-Sep-15 10:29N 54°37' W 005°55'0 0.0
2019-Sep-15 09:59N 54°37' W 005°55'0 0.0
2019-Sep-15 09:29N 54°37' W 005°55'0 0.0
2019-Sep-15 08:59N 54°37' W 005°55'0 0.0
2019-Sep-15 08:29N 54°37' W 005°55'0 0.0
2019-Sep-15 07:59N 54°37' W 005°55'0 0.0
2019-Sep-15 07:29N 54°37' W 005°55'0 0.0
2019-Sep-15 06:59N 54°37' W 005°55'0 0.0
2019-Sep-15 06:29N 54°37' W 005°55'0 0.0
2019-Sep-15 05:56N 54°37' W 005°55'0 0.0
2019-Sep-15 05:29N 54°37' W 005°55'0 0.0
2019-Sep-15 04:59N 54°37' W 005°55'0 0.0
2019-Sep-15 04:29N 54°37' W 005°55'0 0.0
2019-Sep-15 03:37N 54°37' W 005°55'0 0.0
2019-Sep-15 02:58N 54°37' W 005°55'0 0.0
2019-Sep-15 02:05N 54°37' W 005°55'0 0.0
2019-Sep-15 01:14N 54°37' W 005°55'0 0.0
2019-Sep-15 00:55N 54°37' W 005°55'0 0.0
2019-Sep-14 23:58N 54°37' W 005°55'0 0.0
2019-Sep-14 23:22N 54°37' W 005°55'0 0.0
2019-Sep-14 22:55N 54°37' W 005°55'0 0.0
2019-Sep-14 22:22N 54°37' W 005°55'0 0.0
2019-Sep-14 21:58N 54°37' W 005°55'0 0.0
2019-Sep-14 21:04N 54°37' W 005°55'0 0.0
2019-Sep-14 19:28N 54°37' W 005°55'0 0.0
2019-Sep-14 18:55N 54°37' W 005°55'0 0.0
2019-Sep-14 18:07N 54°37' W 005°55'0 0.0
2019-Sep-14 17:43N 54°37' W 005°55'0 0.0
2019-Sep-14 17:22N 54°37' W 005°55'0 0.0
2019-Sep-14 16:46N 54°37' W 005°55'0 0.0
2019-Sep-14 16:19N 54°37' W 005°55'0 0.0
2019-Sep-14 15:58N 54°37' W 005°55'0 0.0
2019-Sep-14 15:28N 54°37' W 005°55'0 0.0
2019-Sep-14 14:58N 54°37' W 005°55'0 0.0
2019-Sep-14 14:28N 54°37' W 005°55'0 0.0
2019-Sep-14 13:58N 54°37' W 005°55'0 0.0
2019-Sep-14 13:28N 54°37' W 005°55'0 0.0
2019-Sep-14 12:58N 54°37' W 005°55'0 0.0
2019-Sep-14 12:28N 54°37' W 005°55'0 0.0
2019-Sep-14 11:58N 54°37' W 005°55'0 0.0
2019-Sep-14 11:28N 54°37' W 005°55'0 0.0
2019-Sep-14 10:52N 54°37' W 005°55'0 0.0
2019-Sep-14 10:19N 54°37' W 005°55'0 0.0
2019-Sep-14 09:37N 54°37' W 005°55'0 0.0
2019-Sep-14 08:58N 54°37' W 005°55'0 0.0
2019-Sep-14 08:25N 54°37' W 005°55'0 0.0
2019-Sep-14 07:55N 54°37' W 005°55'0 0.0
2019-Sep-14 07:19N 54°37' W 005°55'0 0.0
2019-Sep-14 06:58N 54°37' W 005°55'1 1.7
2019-Sep-14 06:29N 54°37' W 005°54'3 6.8
2019-Sep-14 05:58N 54°40' W 005°50'5 9.9
2019-Sep-14 05:30N 54°42' W 005°43'4 8.5
2019-Sep-14 05:00N 54°46' W 005°39'2 3.8
2019-Sep-14 04:29N 54°47' W 005°37'2 3.7
2019-Sep-14 04:00N 54°49' W 005°37'2 3.1
2019-Sep-14 03:30N 54°51' W 005°37'2 3.3
2019-Sep-14 03:00N 54°49' W 005°37'2 4.1
2019-Sep-14 02:30N 54°47' W 005°37'1 2.1
2019-Sep-14 02:00N 54°48' W 005°37'1 2.3
2019-Sep-14 01:30N 54°49' W 005°37'1 2.4
2019-Sep-14 00:59N 54°50' W 005°37'8 6.5
2019-Sep-13 23:44N 54°56' W 005°27'11 5.8
2019-Sep-13 21:48N 54°51' W 005°10'3 8.8
2019-Sep-13 21:30N 54°50' W 005°07'2 3.8
2019-Sep-13 21:00N 54°48' W 005°06'1 2.1
2019-Sep-13 20:24N 54°46' W 005°06'1 3.1
2019-Sep-13 19:58N 54°47' W 005°03'3 6.7
2019-Sep-13 19:30N 54°44' W 005°01'3 6.4
2019-Sep-13 18:58N 54°41' W 005°00'  

Dump ship's entire track history